sensor_id;sensor_type;location;lat;lon;timestamp;pressure;altitude;pressure_sealevel;temperature;humidity
75942;BME280;64622;46.220;19.878;2023-05-29T00:01:59;100388.63;;;16.90;91.58
75942;BME280;64622;46.220;19.878;2023-05-29T00:04:26;100393.22;;;16.96;91.86
75942;BME280;64622;46.220;19.878;2023-05-29T00:06:52;100391.59;;;17.01;92.11
75942;BME280;64622;46.220;19.878;2023-05-29T00:09:19;100387.62;;;16.97;92.06
75942;BME280;64622;46.220;19.878;2023-05-29T00:11:45;100384.62;;;16.86;92.47
75942;BME280;64622;46.220;19.878;2023-05-29T00:14:20;100392.44;;;16.74;93.82
75942;BME280;64622;46.220;19.878;2023-05-29T00:16:47;100378.81;;;16.61;94.03
75942;BME280;64622;46.220;19.878;2023-05-29T00:19:13;100379.87;;;16.39;93.77
75942;BME280;64622;46.220;19.878;2023-05-29T00:21:40;100372.44;;;16.27;94.63
75942;BME280;64622;46.220;19.878;2023-05-29T00:24:07;100362.19;;;16.01;96.80
75942;BME280;64622;46.220;19.878;2023-05-29T00:26:33;100347.03;;;16.00;96.88
75942;BME280;64622;46.220;19.878;2023-05-29T00:29:00;100361.19;;;16.02;96.62
75942;BME280;64622;46.220;19.878;2023-05-29T00:31:27;100358.09;;;16.05;96.43
75942;BME280;64622;46.220;19.878;2023-05-29T00:33:54;100357.12;;;15.92;96.84
75942;BME280;64622;46.220;19.878;2023-05-29T00:36:20;100354.50;;;15.98;97.02
75942;BME280;64622;46.220;19.878;2023-05-29T00:38:48;100356.06;;;16.07;96.62
75942;BME280;64622;46.220;19.878;2023-05-29T00:41:15;100352.19;;;16.16;96.25
75942;BME280;64622;46.220;19.878;2023-05-29T00:43:42;100367.75;;;16.14;96.04
75942;BME280;64622;46.220;19.878;2023-05-29T00:46:13;100373.22;;;16.21;96.18
75942;BME280;64622;46.220;19.878;2023-05-29T00:48:41;100373.91;;;16.29;96.12
75942;BME280;64622;46.220;19.878;2023-05-29T00:51:10;100370.00;;;16.32;96.40
75942;BME280;64622;46.220;19.878;2023-05-29T00:53:40;100364.84;;;16.37;96.30
75942;BME280;64622;46.220;19.878;2023-05-29T00:56:07;100365.87;;;16.36;96.29
75942;BME280;64622;46.220;19.878;2023-05-29T00:58:34;100373.13;;;16.35;96.30
75942;BME280;64622;46.220;19.878;2023-05-29T01:01:02;100382.72;;;16.38;96.30
75942;BME280;64622;46.220;19.878;2023-05-29T01:03:29;100378.47;;;16.29;96.09
75942;BME280;64622;46.220;19.878;2023-05-29T01:05:56;100376.97;;;16.20;96.29
75942;BME280;64622;46.220;19.878;2023-05-29T01:08:24;100381.31;;;16.21;96.39
75942;BME280;64622;46.220;19.878;2023-05-29T01:10:52;100379.84;;;16.18;96.52
75942;BME280;64622;46.220;19.878;2023-05-29T01:13:23;100384.28;;;16.26;96.64
75942;BME280;64622;46.220;19.878;2023-05-29T01:16:04;100379.25;;;16.23;96.54
75942;BME280;64622;46.220;19.878;2023-05-29T01:18:41;100369.13;;;16.25;97.11
75942;BME280;64622;46.220;19.878;2023-05-29T01:21:16;100363.91;;;16.23;97.42
75942;BME280;64622;46.220;19.878;2023-05-29T01:23:53;100365.13;;;16.21;97.60
75942;BME280;64622;46.220;19.878;2023-05-29T01:29:02;100372.81;;;16.24;97.79
75942;BME280;64622;46.220;19.878;2023-05-29T01:31:31;100367.75;;;16.14;98.31
75942;BME280;64622;46.220;19.878;2023-05-29T01:33:59;100371.06;;;16.16;98.46
75942;BME280;64622;46.220;19.878;2023-05-29T01:36:27;100362.16;;;16.16;98.73
75942;BME280;64622;46.220;19.878;2023-05-29T01:38:55;100349.69;;;16.15;98.86
75942;BME280;64622;46.220;19.878;2023-05-29T01:41:23;100365.16;;;16.06;99.35
75942;BME280;64622;46.220;19.878;2023-05-29T01:43:51;100367.34;;;15.96;99.15
75942;BME280;64622;46.220;19.878;2023-05-29T01:46:19;100352.56;;;15.92;98.98
75942;BME280;64622;46.220;19.878;2023-05-29T01:48:47;100350.50;;;15.94;98.98
75942;BME280;64622;46.220;19.878;2023-05-29T01:51:14;100354.94;;;16.02;99.10
75942;BME280;64622;46.220;19.878;2023-05-29T01:53:42;100352.13;;;16.10;99.04
75942;BME280;64622;46.220;19.878;2023-05-29T01:56:09;100364.47;;;16.19;99.00
75942;BME280;64622;46.220;19.878;2023-05-29T01:58:38;100359.06;;;16.19;99.32
75942;BME280;64622;46.220;19.878;2023-05-29T02:01:06;100360.00;;;16.11;99.38
75942;BME280;64622;46.220;19.878;2023-05-29T02:03:34;100346.91;;;16.08;99.46
75942;BME280;64622;46.220;19.878;2023-05-29T02:06:01;100353.41;;;16.14;99.74
75942;BME280;64622;46.220;19.878;2023-05-29T02:08:28;100344.06;;;16.16;100.00
75942;BME280;64622;46.220;19.878;2023-05-29T02:10:55;100344.28;;;16.15;99.85
75942;BME280;64622;46.220;19.878;2023-05-29T02:13:22;100343.06;;;16.17;99.98
75942;BME280;64622;46.220;19.878;2023-05-29T02:15:48;100348.56;;;16.30;99.89
75942;BME280;64622;46.220;19.878;2023-05-29T02:18:15;100336.97;;;16.30;99.76
75942;BME280;64622;46.220;19.878;2023-05-29T02:20:45;100330.97;;;16.34;99.54
75942;BME280;64622;46.220;19.878;2023-05-29T02:23:18;100339.97;;;16.41;99.52
75942;BME280;64622;46.220;19.878;2023-05-29T02:25:45;100331.41;;;16.38;99.56
75942;BME280;64622;46.220;19.878;2023-05-29T02:28:12;100332.25;;;16.38;99.53
75942;BME280;64622;46.220;19.878;2023-05-29T02:30:39;100336.03;;;16.44;99.50
75942;BME280;64622;46.220;19.878;2023-05-29T02:33:09;100340.03;;;16.48;99.22
75942;BME280;64622;46.220;19.878;2023-05-29T02:35:35;100338.00;;;16.50;99.12
75942;BME280;64622;46.220;19.878;2023-05-29T02:38:04;100334.81;;;16.46;99.10
75942;BME280;64622;46.220;19.878;2023-05-29T02:40:33;100336.03;;;16.44;99.14
75942;BME280;64622;46.220;19.878;2023-05-29T02:43:00;100338.37;;;16.47;99.18
75942;BME280;64622;46.220;19.878;2023-05-29T02:45:26;100335.41;;;16.42;99.20
75942;BME280;64622;46.220;19.878;2023-05-29T02:47:54;100331.87;;;16.41;99.31
75942;BME280;64622;46.220;19.878;2023-05-29T02:50:20;100337.84;;;16.37;99.52
75942;BME280;64622;46.220;19.878;2023-05-29T02:52:47;100335.25;;;16.29;99.91
75942;BME280;64622;46.220;19.878;2023-05-29T02:55:13;100336.69;;;16.25;100.00
75942;BME280;64622;46.220;19.878;2023-05-29T02:57:40;100342.91;;;16.25;100.00
75942;BME280;64622;46.220;19.878;2023-05-29T03:00:08;100345.78;;;16.17;100.00
75942;BME280;64622;46.220;19.878;2023-05-29T03:02:35;100344.47;;;16.13;100.00
75942;BME280;64622;46.220;19.878;2023-05-29T03:05:02;100353.41;;;16.14;100.00
75942;BME280;64622;46.220;19.878;2023-05-29T03:07:29;100353.41;;;16.14;100.00
75942;BME280;64622;46.220;19.878;2023-05-29T03:09:55;100353.13;;;16.09;100.00
75942;BME280;64622;46.220;19.878;2023-05-29T03:12:23;100353.91;;;16.03;100.00
75942;BME280;64622;46.220;19.878;2023-05-29T03:14:50;100347.44;;;15.97;100.00
75942;BME280;64622;46.220;19.878;2023-05-29T03:17:17;100352.19;;;15.95;100.00
75942;BME280;64622;46.220;19.878;2023-05-29T03:19:43;100355.31;;;15.99;100.00
75942;BME280;64622;46.220;19.878;2023-05-29T03:22:10;100347.09;;;16.07;100.00
75942;BME280;64622;46.220;19.878;2023-05-29T03:24:37;100361.72;;;16.12;100.00
75942;BME280;64622;46.220;19.878;2023-05-29T03:27:04;100350.50;;;16.15;100.00
75942;BME280;64622;46.220;19.878;2023-05-29T03:29:32;100357.97;;;16.13;100.00
75942;BME280;64622;46.220;19.878;2023-05-29T03:31:59;100361.31;;;16.15;100.00
75942;BME280;64622;46.220;19.878;2023-05-29T03:34:25;100363.03;;;16.23;100.00
75942;BME280;64622;46.220;19.878;2023-05-29T03:36:53;100363.56;;;16.33;100.00
75942;BME280;64622;46.220;19.878;2023-05-29T03:39:20;100361.59;;;16.41;100.00
75942;BME280;64622;46.220;19.878;2023-05-29T03:41:47;100357.22;;;16.40;100.00
75942;BME280;64622;46.220;19.878;2023-05-29T03:44:14;100365.56;;;16.45;100.00
75942;BME280;64622;46.220;19.878;2023-05-29T03:46:41;100364.16;;;16.49;100.00
75942;BME280;64622;46.220;19.878;2023-05-29T03:49:08;100368.34;;;16.52;100.00
75942;BME280;64622;46.220;19.878;2023-05-29T03:51:35;100364.84;;;16.58;100.00
75942;BME280;64622;46.220;19.878;2023-05-29T03:54:02;100363.44;;;16.62;100.00
75942;BME280;64622;46.220;19.878;2023-05-29T03:56:29;100365.16;;;16.69;100.00
75942;BME280;64622;46.220;19.878;2023-05-29T03:58:57;100374.59;;;16.80;100.00
75942;BME280;64622;46.220;19.878;2023-05-29T04:01:23;100375.47;;;16.87;99.87
75942;BME280;64622;46.220;19.878;2023-05-29T04:03:50;100366.94;;;16.83;99.69
75942;BME280;64622;46.220;19.878;2023-05-29T04:06:17;100368.00;;;16.89;99.54
75942;BME280;64622;46.220;19.878;2023-05-29T04:08:44;100378.66;;;16.97;99.58
75942;BME280;64622;46.220;19.878;2023-05-29T04:11:11;100367.50;;;17.06;99.30
75942;BME280;64622;46.220;19.878;2023-05-29T04:13:38;100376.72;;;17.18;98.72
75942;BME280;64622;46.220;19.878;2023-05-29T04:16:06;100379.91;;;17.28;98.25
75942;BME280;64622;46.220;19.878;2023-05-29T04:18:33;100376.16;;;17.29;98.26
75942;BME280;64622;46.220;19.878;2023-05-29T04:21:00;100372.03;;;17.33;98.15
75942;BME280;64622;46.220;19.878;2023-05-29T04:23:27;100383.34;;;17.43;98.06
75942;BME280;64622;46.220;19.878;2023-05-29T04:25:53;100386.06;;;17.43;97.92
75942;BME280;64622;46.220;19.878;2023-05-29T04:28:20;100407.00;;;17.35;97.83
75942;BME280;64622;46.220;19.878;2023-05-29T04:30:47;100397.34;;;17.53;97.66
75942;BME280;64622;46.220;19.878;2023-05-29T04:33:14;100399.81;;;17.48;97.45
75942;BME280;64622;46.220;19.878;2023-05-29T04:35:42;100405.28;;;17.55;97.42
75942;BME280;64622;46.220;19.878;2023-05-29T04:38:11;100393.50;;;17.75;97.39
75942;BME280;64622;46.220;19.878;2023-05-29T04:40:38;100395.59;;;17.80;97.45
75942;BME280;64622;46.220;19.878;2023-05-29T04:43:06;100407.94;;;17.95;97.03
75942;BME280;64622;46.220;19.878;2023-05-29T04:45:35;100408.16;;;18.00;96.64
75942;BME280;64622;46.220;19.878;2023-05-29T04:48:04;100405.84;;;17.91;96.67
75942;BME280;64622;46.220;19.878;2023-05-29T04:50:33;100401.09;;;18.06;96.02
75942;BME280;64622;46.220;19.878;2023-05-29T04:53:00;100416.69;;;17.97;95.66
75942;BME280;64622;46.220;19.878;2023-05-29T04:55:28;100407.94;;;17.95;95.55
75942;BME280;64622;46.220;19.878;2023-05-29T04:57:54;100419.41;;;18.04;95.27
75942;BME280;64622;46.220;19.878;2023-05-29T05:00:21;100418.56;;;17.97;95.20
75942;BME280;64622;46.220;19.878;2023-05-29T05:02:49;100410.84;;;17.94;95.15
75942;BME280;64622;46.220;19.878;2023-05-29T05:05:15;100419.16;;;17.86;95.29
75942;BME280;64622;46.220;19.878;2023-05-29T05:07:42;100420.47;;;18.03;95.04
75942;BME280;64622;46.220;19.878;2023-05-29T05:10:09;100413.37;;;18.02;94.96
75942;BME280;64622;46.220;19.878;2023-05-29T05:12:36;100409.84;;;18.08;94.79
75942;BME280;64622;46.220;19.878;2023-05-29T05:15:04;100407.97;;;18.08;94.76
75942;BME280;64622;46.220;19.878;2023-05-29T05:17:34;100411.09;;;18.05;94.61
75942;BME280;64622;46.220;19.878;2023-05-29T05:20:00;100421.69;;;18.00;94.40
75942;BME280;64622;46.220;19.878;2023-05-29T05:22:27;100411.72;;;18.01;94.39
75942;BME280;64622;46.220;19.878;2023-05-29T05:24:55;100426.25;;;18.00;94.33
75942;BME280;64622;46.220;19.878;2023-05-29T05:27:23;100426.84;;;17.89;94.10
75942;BME280;64622;46.220;19.878;2023-05-29T05:29:50;100423.25;;;17.75;94.20
75942;BME280;64622;46.220;19.878;2023-05-29T05:32:17;100435.88;;;17.96;94.20
75942;BME280;64622;46.220;19.878;2023-05-29T05:34:44;100432.72;;;17.99;94.17
75942;BME280;64622;46.220;19.878;2023-05-29T05:37:12;100427.59;;;18.17;94.16
75942;BME280;64622;46.220;19.878;2023-05-29T05:39:40;100426.84;;;18.36;94.12
75942;BME280;64622;46.220;19.878;2023-05-29T05:42:06;100424.97;;;18.49;94.08
75942;BME280;64622;46.220;19.878;2023-05-29T05:44:35;100428.50;;;18.37;93.81
75942;BME280;64622;46.220;19.878;2023-05-29T05:47:03;100435.59;;;18.57;93.78
75942;BME280;64622;46.220;19.878;2023-05-29T05:49:30;100437.28;;;18.65;93.65
75942;BME280;64622;46.220;19.878;2023-05-29T05:51:57;100423.09;;;18.50;93.46
75942;BME280;64622;46.220;19.878;2023-05-29T05:54:24;100439.59;;;18.48;93.17
75942;BME280;64622;46.220;19.878;2023-05-29T05:56:51;100432.09;;;18.76;93.20
75942;BME280;64622;46.220;19.878;2023-05-29T05:59:18;100437.28;;;18.65;93.24
75942;BME280;64622;46.220;19.878;2023-05-29T06:01:45;100433.75;;;18.97;92.55
75942;BME280;64622;46.220;19.878;2023-05-29T06:04:14;100435.41;;;19.37;92.02
75942;BME280;64622;46.220;19.878;2023-05-29T06:06:42;100433.44;;;19.70;91.41
75942;BME280;64622;46.220;19.878;2023-05-29T06:09:09;100426.72;;;19.79;89.98
75942;BME280;64622;46.220;19.878;2023-05-29T06:11:37;100432.50;;;20.08;90.56
75942;BME280;64622;46.220;19.878;2023-05-29T06:14:04;100431.62;;;20.45;88.67
75942;BME280;64622;46.220;19.878;2023-05-29T06:16:31;100434.13;;;20.78;86.63
75942;BME280;64622;46.220;19.878;2023-05-29T06:18:58;100432.22;;;20.54;85.85
75942;BME280;64622;46.220;19.878;2023-05-29T06:21:25;100435.88;;;20.35;87.06
75942;BME280;64622;46.220;19.878;2023-05-29T06:23:52;100432.63;;;20.82;86.08
75942;BME280;64622;46.220;19.878;2023-05-29T06:26:20;100439.88;;;21.19;85.21
75942;BME280;64622;46.220;19.878;2023-05-29T06:28:47;100440.66;;;21.44;83.64
75942;BME280;64622;46.220;19.878;2023-05-29T06:31:14;100457.37;;;21.72;82.96
75942;BME280;64622;46.220;19.878;2023-05-29T06:33:41;100454.72;;;22.01;82.75
75942;BME280;64622;46.220;19.878;2023-05-29T06:36:08;100456.56;;;22.19;82.49
75942;BME280;64622;46.220;19.878;2023-05-29T06:38:34;100454.31;;;22.75;79.92
75942;BME280;64622;46.220;19.878;2023-05-29T06:41:03;100464.47;;;22.56;78.01
75942;BME280;64622;46.220;19.878;2023-05-29T06:43:29;100454.66;;;22.67;79.80
75942;BME280;64622;46.220;19.878;2023-05-29T06:45:56;100458.97;;;22.45;80.59
75942;BME280;64622;46.220;19.878;2023-05-29T06:48:23;100463.09;;;22.65;80.02
75942;BME280;64622;46.220;19.878;2023-05-29T06:50:50;100460.50;;;22.23;82.21
75942;BME280;64622;46.220;19.878;2023-05-29T06:53:17;100455.13;;;22.64;81.63
75942;BME280;64622;46.220;19.878;2023-05-29T06:55:44;100459.09;;;22.79;81.31
75942;BME280;64622;46.220;19.878;2023-05-29T06:58:11;100463.25;;;22.82;81.16
75942;BME280;64622;46.220;19.878;2023-05-29T07:04:19;100466.22;;;22.80;81.24
75942;BME280;64622;46.220;19.878;2023-05-29T07:06:46;100465.53;;;22.96;81.12
75942;BME280;64622;46.220;19.878;2023-05-29T07:09:13;100459.09;;;22.79;80.89
75942;BME280;64622;46.220;19.878;2023-05-29T07:11:40;100468.31;;;22.19;84.40
75942;BME280;64622;46.220;19.878;2023-05-29T07:14:07;100465.28;;;22.45;83.48
75942;BME280;64622;46.220;19.878;2023-05-29T07:16:33;100471.28;;;22.00;84.10
75942;BME280;64622;46.220;19.878;2023-05-29T07:19:01;100462.97;;;21.95;84.27
75942;BME280;64622;46.220;19.878;2023-05-29T07:21:29;100477.50;;;21.89;85.07
75942;BME280;64622;46.220;19.878;2023-05-29T07:23:57;100480.78;;;22.45;81.47
75942;BME280;64622;46.220;19.878;2023-05-29T07:26:23;100484.41;;;22.39;81.25
75942;BME280;64622;46.220;19.878;2023-05-29T07:28:50;100482.06;;;22.42;81.24
75942;BME280;64622;46.220;19.878;2023-05-29T07:31:17;100486.06;;;22.10;82.17
75942;BME280;64622;46.220;19.878;2023-05-29T07:33:43;100475.69;;;22.78;79.61
75942;BME280;64622;46.220;19.878;2023-05-29T07:36:15;100487.00;;;22.52;79.34
75942;BME280;64622;46.220;19.878;2023-05-29T07:38:41;100483.91;;;22.30;78.48
75942;BME280;64622;46.220;19.878;2023-05-29T07:41:08;100488.47;;;22.66;78.03
75942;BME280;64622;46.220;19.878;2023-05-29T07:43:35;100490.56;;;22.82;76.48
75942;BME280;64622;46.220;19.878;2023-05-29T07:46:03;100490.72;;;22.69;77.43
75942;BME280;64622;46.220;19.878;2023-05-29T07:48:29;100483.75;;;22.73;77.12
75942;BME280;64622;46.220;19.878;2023-05-29T07:50:56;100486.53;;;22.84;77.36
75942;BME280;64622;46.220;19.878;2023-05-29T07:53:24;100491.53;;;22.99;77.50
75942;BME280;64622;46.220;19.878;2023-05-29T07:55:51;100489.84;;;22.86;78.15
75942;BME280;64622;46.220;19.878;2023-05-29T07:58:18;100495.88;;;22.88;78.47
75942;BME280;64622;46.220;19.878;2023-05-29T08:00:44;100492.38;;;22.70;79.40
75942;BME280;64622;46.220;19.878;2023-05-29T08:03:12;100510.91;;;22.68;79.76
75942;BME280;64622;46.220;19.878;2023-05-29T08:05:43;100506.13;;;22.63;79.28
75942;BME280;64622;46.220;19.878;2023-05-29T08:08:09;100503.84;;;21.77;82.51
75942;BME280;64622;46.220;19.878;2023-05-29T08:10:39;100503.91;;;22.24;81.99
75942;BME280;64622;46.220;19.878;2023-05-29T08:13:05;100502.81;;;22.61;80.53
75942;BME280;64622;46.220;19.878;2023-05-29T08:15:33;100506.41;;;22.73;79.54
75942;BME280;64622;46.220;19.878;2023-05-29T08:18:01;100502.31;;;22.53;79.94
75942;BME280;64622;46.220;19.878;2023-05-29T08:20:27;100512.47;;;22.75;78.60
75942;BME280;64622;46.220;19.878;2023-05-29T08:22:53;100504.25;;;23.05;78.12
75942;BME280;64622;46.220;19.878;2023-05-29T08:25:20;100510.81;;;23.27;77.11
75942;BME280;64622;46.220;19.878;2023-05-29T08:27:47;100506.34;;;23.32;76.60
75942;BME280;64622;46.220;19.878;2023-05-29T08:30:13;100507.81;;;23.17;78.19
75942;BME280;64622;46.220;19.878;2023-05-29T08:32:40;100514.56;;;23.14;79.23
75942;BME280;64622;46.220;19.878;2023-05-29T08:35:07;100501.44;;;23.34;76.82
75942;BME280;64622;46.220;19.878;2023-05-29T08:37:34;100500.97;;;23.72;75.92
75942;BME280;64622;46.220;19.878;2023-05-29T08:40:01;100495.16;;;23.68;74.36
75942;BME280;64622;46.220;19.878;2023-05-29T08:42:36;100502.66;;;23.96;73.89
75942;BME280;64622;46.220;19.878;2023-05-29T08:45:08;100497.69;;;23.93;73.07
75942;BME280;64622;46.220;19.878;2023-05-29T08:47:38;100507.34;;;24.23;71.17
75942;BME280;64622;46.220;19.878;2023-05-29T08:50:07;100492.53;;;24.47;71.05
75942;BME280;64622;46.220;19.878;2023-05-29T08:52:34;100503.09;;;24.55;71.50
75942;BME280;64622;46.220;19.878;2023-05-29T08:55:05;100502.72;;;24.63;70.21
75942;BME280;64622;46.220;19.878;2023-05-29T08:57:32;100511.22;;;23.88;72.93
75942;BME280;64622;46.220;19.878;2023-05-29T09:00:00;100503.00;;;23.88;71.53
75942;BME280;64622;46.220;19.878;2023-05-29T09:02:26;100510.03;;;23.95;71.52
75942;BME280;64622;46.220;19.878;2023-05-29T09:04:53;100507.13;;;24.13;71.14
75942;BME280;64622;46.220;19.878;2023-05-29T09:07:20;100504.81;;;23.94;nan
75942;BME280;64622;46.220;19.878;2023-05-29T09:09:48;100507.19;;;23.90;71.04
75942;BME280;64622;46.220;19.878;2023-05-29T09:12:15;100512.28;;;23.98;70.33
75942;BME280;64622;46.220;19.878;2023-05-29T09:14:44;100510.69;;;23.22;75.21
75942;BME280;64622;46.220;19.878;2023-05-29T09:17:11;100502.66;;;23.38;76.01
75942;BME280;64622;46.220;19.878;2023-05-29T09:19:39;100508.22;;;24.12;71.62
75942;BME280;64622;46.220;19.878;2023-05-29T09:22:13;100504.38;;;24.64;68.97
75942;BME280;64622;46.220;19.878;2023-05-29T09:24:43;100516.34;;;24.75;69.08
75942;BME280;64622;46.220;19.878;2023-05-29T09:27:11;100506.81;;;24.77;68.86
75942;BME280;64622;46.220;19.878;2023-05-29T09:33:19;100506.91;;;24.03;73.07
75942;BME280;64622;46.220;19.878;2023-05-29T09:35:48;100508.34;;;24.06;71.73
75942;BME280;64622;46.220;19.878;2023-05-29T09:38:18;100504.06;;;24.10;72.16
75942;BME280;64622;46.220;19.878;2023-05-29T09:40:46;100523.19;;;24.10;72.05
75942;BME280;64622;46.220;19.878;2023-05-29T09:43:17;100517.84;;;24.03;72.14
75942;BME280;64622;46.220;19.878;2023-05-29T09:45:48;100520.81;;;24.13;72.19
75942;BME280;64622;46.220;19.878;2023-05-29T09:48:23;100516.91;;;23.86;71.65
75942;BME280;64622;46.220;19.878;2023-05-29T09:50:50;100516.66;;;23.99;72.77
75942;BME280;64622;46.220;19.878;2023-05-29T09:53:24;100516.44;;;23.89;71.28
75942;BME280;64622;46.220;19.878;2023-05-29T09:55:51;100516.09;;;23.97;71.22
75942;BME280;64622;46.220;19.878;2023-05-29T09:58:19;100520.09;;;23.83;72.65
75942;BME280;64622;46.220;19.878;2023-05-29T10:00:47;100516.91;;;23.63;73.12
75942;BME280;64622;46.220;19.878;2023-05-29T10:03:15;100517.63;;;23.59;74.39
75942;BME280;64622;46.220;19.878;2023-05-29T10:05:47;100516.09;;;23.97;74.14
75942;BME280;64622;46.220;19.878;2023-05-29T10:08:17;100506.62;;;24.28;71.82
75942;BME280;64622;46.220;19.878;2023-05-29T10:10:53;100512.13;;;24.56;71.20
75942;BME280;64622;46.220;19.878;2023-05-29T10:13:24;100505.91;;;24.88;69.44
75942;BME280;64622;46.220;19.878;2023-05-29T10:15:55;100510.03;;;25.19;69.10
75942;BME280;64622;46.220;19.878;2023-05-29T10:18:32;100499.88;;;24.58;70.65
75942;BME280;64622;46.220;19.878;2023-05-29T10:21:01;100509.28;;;24.51;69.80
75942;BME280;64622;46.220;19.878;2023-05-29T10:23:30;100506.69;;;24.44;69.08
75942;BME280;64622;46.220;19.878;2023-05-29T10:25:59;100507.28;;;24.46;68.48
75942;BME280;64622;46.220;19.878;2023-05-29T10:28:29;100506.56;;;24.39;65.67
75942;BME280;64622;46.220;19.878;2023-05-29T10:31:04;100493.78;;;24.68;64.09
75942;BME280;64622;46.220;19.878;2023-05-29T10:34:02;100503.00;;;25.23;63.34
75942;BME280;64622;46.220;19.878;2023-05-29T10:36:42;100502.44;;;25.92;60.12
75942;BME280;64622;46.220;19.878;2023-05-29T10:39:10;100499.06;;;26.71;57.37
75942;BME280;64622;46.220;19.878;2023-05-29T10:41:37;100486.25;;;27.39;54.58
75942;BME280;64622;46.220;19.878;2023-05-29T10:49:25;100474.09;;;29.15;47.23
75942;BME280;64622;46.220;19.878;2023-05-29T10:51:52;100463.84;;;29.65;46.92
75942;BME280;64622;46.220;19.878;2023-05-29T10:54:22;100475.16;;;29.24;46.92
75942;BME280;64622;46.220;19.878;2023-05-29T10:57:00;100466.34;;;29.22;47.23
75942;BME280;64622;46.220;19.878;2023-05-29T10:59:28;100459.53;;;27.30;50.05
75942;BME280;64622;46.220;19.878;2023-05-29T11:01:55;100464.56;;;27.84;48.30
75942;BME280;64622;46.220;19.878;2023-05-29T11:06:53;100447.37;;;26.94;51.54
75942;BME280;64622;46.220;19.878;2023-05-29T11:09:37;100456.09;;;27.96;48.77
75942;BME280;64622;46.220;19.878;2023-05-29T11:12:20;100451.38;;;27.81;48.03
75942;BME280;64622;46.220;19.878;2023-05-29T11:17:42;100448.38;;;27.93;46.95
75942;BME280;64622;46.220;19.878;2023-05-29T11:20:36;100451.25;;;27.66;46.35
75942;BME280;64622;46.220;19.878;2023-05-29T11:23:05;100439.78;;;27.06;47.45
75942;BME280;64622;46.220;19.878;2023-05-29T11:25:36;100444.28;;;26.86;48.34
75942;BME280;64622;46.220;19.878;2023-05-29T11:28:04;100443.19;;;26.34;49.97
75942;BME280;64622;46.220;19.878;2023-05-29T11:30:45;100437.56;;;26.24;49.74
75942;BME280;64622;46.220;19.878;2023-05-29T11:33:22;100435.12;;;27.38;48.18
75942;BME280;64622;46.220;19.878;2023-05-29T11:35:55;100434.69;;;28.13;46.41
75942;BME280;64622;46.220;19.878;2023-05-29T11:38:24;100426.59;;;28.58;43.85
75942;BME280;64622;46.220;19.878;2023-05-29T11:40:54;100414.94;;;29.91;41.10
75942;BME280;64622;46.220;19.878;2023-05-29T11:43:21;100413.09;;;30.35;40.78
75942;BME280;64622;46.220;19.878;2023-05-29T11:45:48;100413.66;;;29.48;42.32
75942;BME280;64622;46.220;19.878;2023-05-29T11:48:15;100398.31;;;27.91;46.03
75942;BME280;64622;46.220;19.878;2023-05-29T11:50:41;100411.78;;;26.78;49.96
75942;BME280;64622;46.220;19.878;2023-05-29T11:53:11;100418.16;;;26.83;49.36
75942;BME280;64622;46.220;19.878;2023-05-29T11:55:38;100415.75;;;26.60;51.02
75942;BME280;64622;46.220;19.878;2023-05-29T11:58:05;100421.50;;;26.11;51.80
75942;BME280;64622;46.220;19.878;2023-05-29T12:00:34;100432.78;;;25.93;51.13
75942;BME280;64622;46.220;19.878;2023-05-29T12:03:04;100430.59;;;25.73;51.54
75942;BME280;64622;46.220;19.878;2023-05-29T12:05:32;100420.78;;;25.77;51.51
75942;BME280;64622;46.220;19.878;2023-05-29T12:07:58;100420.50;;;25.57;51.81
75942;BME280;64622;46.220;19.878;2023-05-29T12:10:28;100410.66;;;25.07;53.35
75942;BME280;64622;46.220;19.878;2023-05-29T12:12:59;100409.41;;;24.81;55.11
75942;BME280;64622;46.220;19.878;2023-05-29T12:15:29;100401.38;;;24.75;54.06
75942;BME280;64622;46.220;19.878;2023-05-29T12:17:56;100410.84;;;24.84;53.84
75942;BME280;64622;46.220;19.878;2023-05-29T12:20:25;100413.06;;;24.87;53.87
75942;BME280;64622;46.220;19.878;2023-05-29T12:23:00;100411.38;;;24.69;54.35
75942;BME280;64622;46.220;19.878;2023-05-29T12:25:29;100407.88;;;24.57;55.33
75942;BME280;64622;46.220;19.878;2023-05-29T12:27:57;100395.31;;;24.45;56.12
75942;BME280;64622;46.220;19.878;2023-05-29T12:30:24;100399.47;;;24.47;56.85
75942;BME280;64622;46.220;19.878;2023-05-29T12:32:52;100405.34;;;24.39;56.66
75942;BME280;64622;46.220;19.878;2023-05-29T12:35:20;100407.44;;;24.21;56.98
75942;BME280;64622;46.220;19.878;2023-05-29T12:40:17;100402.53;;;24.06;57.52
75942;BME280;64622;46.220;19.878;2023-05-29T12:42:46;100396.00;;;23.96;58.56
75942;BME280;64622;46.220;19.878;2023-05-29T12:45:12;100388.88;;;23.83;59.16
75942;BME280;64622;46.220;19.878;2023-05-29T12:47:46;100388.78;;;23.78;59.63
75942;BME280;64622;46.220;19.878;2023-05-29T12:52:53;100393.94;;;23.52;60.92
75942;BME280;64622;46.220;19.878;2023-05-29T12:55:20;100389.56;;;23.39;61.35
75942;BME280;64622;46.220;19.878;2023-05-29T12:57:47;100398.56;;;23.17;63.08
75942;BME280;64622;46.220;19.878;2023-05-29T13:00:14;100402.84;;;23.01;65.01
75942;BME280;64622;46.220;19.878;2023-05-29T13:02:40;100398.59;;;23.05;64.26
75942;BME280;64622;46.220;19.878;2023-05-29T13:05:07;100392.03;;;22.83;66.56
75942;BME280;64622;46.220;19.878;2023-05-29T13:07:34;100400.78;;;22.62;67.12
75942;BME280;64622;46.220;19.878;2023-05-29T13:10:00;100407.34;;;22.96;65.18